| time (UTC) | temp F | wind direction | speed MPH | gust MPH | rain 1hr in | rain 24hr in | rain mn in | humidity % | barometer mb |
| 20260510053003 | 47 | 270 | 0.0 | 2.0 | 0.00 | 3.21 | 0.01 | 97 | 1012.9 |
| 20260510052003 | 46 | 270 | 0.0 | 2.0 | 0.00 | 3.21 | 0.01 | 97 | 1012.9 |
| 20260510051003 | 46 | 270 | 0.0 | 2.0 | 0.00 | 3.21 | 0.01 | 96 | 1013.2 |
| 20260510050003 | 46 | 270 | 0.0 | 2.0 | 0.00 | 3.21 | 0.01 | 96 | 1013.1 |
| 20260510045003 | 46 | 0 | 0.0 | 0.0 | 0.00 | 3.21 | 0.01 | 96 | 1013.2 |
| 20260510044003 | 46 | 0 | 0.0 | 0.0 | 0.00 | 3.21 | 0.01 | 96 | 1013.2 |
| 20260510043003 | 47 | 270 | 0.0 | 0.0 | 0.00 | 3.21 | 0.01 | 96 | 1012.9 |
| 20260510042003 | 48 | 270 | 0.0 | 2.0 | 0.00 | 3.21 | 0.01 | 97 | 1013.0 |
| 20260509211003 | 54 | 0 | 0.0 | 0.0 | 0.01 | 3.20 | 0.57 | 96 | 1014.5 |
| 20260509210004 | 54 | 0 | 0.0 | 0.0 | 0.01 | 3.20 | 0.57 | 96 | 1014.2 |
| 20260509205003 | 54 | 0 | 0.0 | 0.0 | 0.01 | 3.20 | 0.57 | 96 | 1013.9 |
| 20260509204003 | 54 | 0 | 0.0 | 0.0 | 0.01 | 3.20 | 0.57 | 96 | 1014.0 |
| 20260509203003 | 54 | 0 | 0.0 | 0.0 | 0.01 | 3.19 | 0.56 | 96 | 1013.9 |
| 20260509202003 | 54 | 0 | 0.0 | 0.0 | 0.01 | 3.19 | 0.56 | 96 | 1014.1 |
| 20260509201003 | 54 | 270 | 0.0 | 2.0 | 0.01 | 3.19 | 0.56 | 96 | 1013.7 |
| 20260509200003 | 54 | 270 | 0.0 | 2.0 | 0.01 | 3.19 | 0.56 | 96 | 1013.4 |
| 20260509195003 | 54 | 0 | 0.0 | 0.0 | 0.02 | 3.19 | 0.56 | 96 | 1013.1 |
| 20260509194003 | 54 | 270 | 0.0 | 3.0 | 0.02 | 3.19 | 0.56 | 96 | 1013.0 |
| 20260509193003 | 54 | 0 | 0.0 | 0.0 | 0.02 | 3.18 | 0.54 | 96 | 1012.8 |
| 20260509192003 | 54 | 0 | 0.0 | 0.0 | 0.02 | 3.18 | 0.54 | 96 | 1012.5 |
| 20260509191003 | 54 | 0 | 0.0 | 0.0 | 0.02 | 3.18 | 0.54 | 96 | 1012.3 |
| 20260509190004 | 54 | 0 | 0.0 | 0.0 | 0.04 | 3.18 | 0.54 | 96 | 1012.3 |
| 20260509185003 | 54 | 0 | 0.0 | 0.0 | 0.05 | 3.17 | 0.53 | 96 | 1012.0 |
| 20260509184003 | 54 | 0 | 0.0 | 0.0 | 0.08 | 3.17 | 0.53 | 96 | 1011.9 |
| 20260509183003 | 54 | 0 | 0.0 | 0.0 | 0.12 | 3.15 | 0.52 | 96 | 1012.0 |
| 20260509182003 | 54 | 0 | 0.0 | 0.0 | 0.18 | 3.15 | 0.52 | 96 | 1012.1 |
| 20260509181003 | 54 | 270 | 0.0 | 3.0 | 0.24 | 3.15 | 0.52 | 96 | 1012.0 |
| 20260509180004 | 55 | 270 | 1.0 | 3.0 | 0.25 | 3.14 | 0.00 | 96 | 1011.9 |
| 20260509175003 | 55 | 270 | 0.0 | 2.0 | 0.26 | 3.12 | 0.52 | 95 | 1012.4 |
| 20260509174003 | 55 | 270 | 0.0 | 2.0 | 0.31 | 3.08 | 0.00 | 95 | 1012.5 |
| 20260509173003 | 55 | 0 | 0.0 | 0.0 | 0.31 | 3.04 | 0.46 | 95 | 1012.8 |
| 20260509172003 | 55 | 0 | 0.0 | 0.0 | 2.85 | 2.98 | 0.40 | 94 | 1013.3 |
| 20260509171003 | 55 | 0 | 0.0 | 0.0 | 2.82 | 2.92 | 0.34 | 94 | 1013.3 |
| 20260509170003 | 55 | 0 | 0.0 | 0.0 | 2.82 | 2.89 | 0.32 | 93 | 1013.6 |
| 20260509165003 | 56 | 0 | 0.0 | 0.0 | 2.79 | 2.86 | 0.28 | 92 | 1013.5 |
| 20260509164003 | 56 | 270 | 0.0 | 3.0 | 2.72 | 2.78 | 0.20 | 91 | 1013.9 |
| 20260509163004 | 56 | 270 | 1.0 | 7.0 | 2.67 | 2.73 | 0.15 | 91 | 1014.0 |
| 20260509162003 | 56 | 270 | 0.0 | 2.0 | 0.11 | 0.13 | 0.13 | 90 | 1013.9 |
| 20260509161003 | 57 | 270 | 0.0 | 2.0 | 0.09 | 0.09 | 0.09 | 89 | 1013.9 |
| 20260509160004 | 57 | 270 | 0.0 | 3.0 | 0.07 | 0.07 | 0.07 | 88 | 1013.5 |
| 20260509155004 | 56 | 0 | 0.0 | 0.0 | 0.07 | 0.07 | 0.07 | 88 | 1012.7 |
| 20260509154006 | 57 | 0 | 0.0 | 0.0 | 0.06 | 0.06 | 0.06 | 87 | 1011.9 |
| 20260509153003 | 57 | 270 | 0.0 | 2.0 | 0.06 | 0.06 | 0.06 | 87 | 1011.7 |
| 20260509152003 | 57 | 270 | 0.0 | 2.0 | 0.02 | 0.02 | 0.02 | 86 | 1011.7 |
| 20260509151003 | 58 | 270 | 1.0 | 4.0 | 0.00 | 0.00 | 0.00 | 83 | 1012.2 |
| 20260509150003 | 58 | 270 | 0.0 | 2.0 | 0.00 | 0.00 | 0.00 | 80 | 1012.7 |
| 20260509145003 | 59 | 270 | 0.0 | 2.0 | 0.00 | 0.00 | 0.00 | 79 | 1013.1 |
| 20260509144003 | 59 | 270 | 0.0 | 2.0 | 0.00 | 0.00 | 0.00 | 81 | 1013.3 |
| 20260509143003 | 60 | 0 | 0.0 | 0.0 | 0.00 | 0.00 | 0.00 | 80 | 1013.3 |
| 20260509142003 | 60 | 270 | 0.0 | 2.0 | 0.00 | 0.00 | 0.00 | 81 | 1013.5 |
| 20260509141003 | 60 | 270 | 0.0 | 4.0 | 0.00 | 0.00 | 0.00 | 81 | 1014.0 |
| 20260509140004 | 60 | 270 | 0.0 | 3.0 | 0.00 | 0.00 | 0.00 | 80 | 1013.7 |
| 20260509135003 | 60 | 270 | 1.0 | 8.0 | 0.00 | 0.00 | 0.00 | 80 | 1013.4 |
| 20260509134003 | 61 | 270 | 0.0 | 4.0 | 0.00 | 0.00 | 0.00 | 80 | 1013.6 |
| 20260509133004 | 60 | 270 | 1.0 | 3.0 | 0.00 | 0.00 | 0.00 | 80 | 1013.7 |
| 20260509132003 | 61 | 270 | 1.0 | 3.0 | 0.00 | 0.00 | 0.00 | 79 | 1013.6 |
| 20260509131003 | 62 | 270 | 0.0 | 2.0 | 0.00 | 0.00 | 0.00 | 78 | 1013.6 |
| 20260509130004 | 62 | 270 | 0.0 | 2.0 | 0.00 | 0.00 | 0.00 | 76 | 1013.6 |
| 20260509125003 | 61 | 270 | 0.0 | 2.0 | 0.00 | 0.00 | 0.00 | 76 | 1013.6 |
| 20260509124003 | 61 | 270 | 0.0 | 3.0 | 0.00 | 0.00 | 0.00 | 78 | 1013.9 |
| 20260509123003 | 61 | 270 | 0.0 | 2.0 | 0.00 | 0.00 | 0.00 | 78 | 1013.9 |
| 20260509122003 | 61 | 270 | 0.0 | 1.0 | 0.00 | 0.00 | 0.00 | 78 | 1014.3 |
| 20260509121006 | 61 | 270 | 0.0 | 2.0 | 0.00 | 0.00 | 0.00 | 76 | 1014.4 |
| 20260509120003 | 61 | 0 | 0.0 | 0.0 | 0.00 | 0.00 | 0.00 | 76 | 1014.5 |
| 20260509115003 | 61 | 0 | 0.0 | 0.0 | 0.00 | 0.00 | 0.00 | 75 | 1015.0 |
| 20260509114003 | 61 | 0 | 0.0 | 0.0 | 0.00 | 0.00 | 0.00 | 75 | 1014.9 |
| 20260509113003 | 61 | 270 | 0.0 | 2.0 | 0.00 | 0.00 | 0.00 | 75 | 1014.9 |
| 20260509112003 | 61 | 270 | 0.0 | 4.0 | 0.00 | 0.00 | 0.00 | 74 | 1014.9 |
| 20260509111003 | 62 | 270 | 0.0 | 3.0 | 0.00 | 0.00 | 0.00 | 74 | 1015.0 |
| 20260509110003 | 63 | 270 | 0.0 | 4.0 | 0.00 | 0.00 | 0.00 | 74 | 1015.0 |
| 20260509105003 | 63 | 270 | 0.0 | 3.0 | 0.00 | 0.00 | 0.00 | 74 | 1014.8 |
| 20260509104003 | 64 | 270 | 1.0 | 4.0 | 0.00 | 0.00 | 0.00 | 71 | 1014.9 |
| 20260509103003 | 64 | 270 | 1.0 | 4.0 | 0.00 | 0.00 | 0.00 | 71 | 1014.8 |
| 20260509102006 | 64 | 270 | 0.0 | 2.0 | 0.00 | 0.00 | 0.00 | 72 | 1014.9 |
| 20260509101003 | 64 | 270 | 0.0 | 3.0 | 0.00 | 0.00 | 0.00 | 71 | 1015.2 |
| 20260509100004 | 64 | 270 | 0.0 | 3.0 | 0.00 | 0.00 | 0.00 | 71 | 1014.9 |
| 20260509095003 | 64 | 270 | 0.0 | 3.0 | 0.00 | 0.00 | 0.00 | 72 | 1014.8 |
| 20260509094004 | 62 | 270 | 0.0 | 4.0 | 0.00 | 0.00 | 0.00 | 76 | 1014.6 |
| 20260509093003 | 62 | 270 | 0.0 | 3.0 | 0.00 | 0.00 | 0.00 | 78 | 1014.8 |
| 20260509092003 | 62 | 270 | 0.0 | 4.0 | 0.00 | 0.00 | 0.00 | 78 | 1014.4 |
| 20260509091003 | 60 | 270 | 1.0 | 7.0 | 0.00 | 0.00 | 0.00 | 80 | 1014.4 |
| 20260509090003 | 60 | 270 | 3.0 | 7.0 | 0.00 | 0.00 | 0.00 | 80 | 1014.4 |
| 20260509085003 | 59 | 270 | 3.0 | 7.0 | 0.00 | 0.00 | 0.00 | 82 | 1014.5 |
| 20260509084003 | 58 | 270 | 2.0 | 6.0 | 0.00 | 0.00 | 0.00 | 82 | 1014.5 |
| 20260509083003 | 58 | 270 | 2.0 | 6.0 | 0.00 | 0.00 | 0.00 | 82 | 1014.4 |
| 20260509082005 | 57 | 270 | 2.0 | 6.0 | 0.00 | 0.00 | 0.00 | 83 | 1014.4 |
| 20260509081004 | 56 | 270 | 1.0 | 4.0 | 0.00 | 0.00 | 0.00 | 83 | 1014.9 |
| 20260509080003 | 56 | 270 | 1.0 | 4.0 | 0.00 | 0.00 | 0.00 | 85 | 1014.8 |
| 20260509075003 | 54 | 270 | 0.0 | 3.0 | 0.00 | 0.00 | 0.00 | 88 | 1015.2 |
| 20260509074003 | 53 | 270 | 1.0 | 4.0 | 0.00 | 0.00 | 0.00 | 91 | 1015.3 |
| 20260509073003 | 53 | 270 | 1.0 | 4.0 | 0.00 | 0.00 | 0.00 | 93 | 1015.0 |
| 20260509072003 | 53 | 270 | 1.0 | 3.0 | 0.00 | 0.00 | 0.00 | 94 | 1015.2 |
| 20260509071003 | 53 | 270 | 1.0 | 4.0 | 0.00 | 0.00 | 0.00 | 94 | 1015.3 |
| 20260509070003 | 52 | 270 | 1.0 | 3.0 | 0.00 | 0.00 | 0.00 | 94 | 1015.4 |
| 20260509065003 | 52 | 270 | 0.0 | 3.0 | 0.00 | 0.00 | 0.00 | 94 | 1015.4 |
| 20260509064003 | 51 | 270 | 1.0 | 3.0 | 0.00 | 0.00 | 0.00 | 94 | 1015.7 |
| 20260509063003 | 51 | 270 | 0.0 | 2.0 | 0.00 | 0.00 | 0.00 | 94 | 1015.6 |
| 20260509062003 | 51 | 270 | 0.0 | 2.0 | 0.00 | 0.00 | 0.00 | 94 | 1015.6 |
| 20260509061003 | 51 | 270 | 0.0 | 2.0 | 0.00 | 0.00 | 0.00 | 94 | 1015.5 |
| 20260509060004 | 50 | 270 | 0.0 | 3.0 | 0.00 | 0.00 | 0.00 | 94 | 1015.8 |
| 20260509055003 | 50 | 270 | 0.0 | 3.0 | 0.00 | 0.00 | 0.00 | 94 | 1015.6 |
| 20260509054003 | 49 | 225 | 0.0 | 2.0 | 0.00 | 0.00 | 0.00 | 94 | 1015.8 |